University, Florida
Current Conditions -  °F | °C
As of 3:53 PM on Tuesday 21 Oct 2014 (Local Time) from KHWO Reporting Station
Few Clouds Few Clouds  
Wind Chill: 79°   Ceiling: Unl
Heat Index: 82°   Visibility: 10mi
Dew Point: 71°   Wind: 12mph
Humidity: 77%   Direction: 230°SW
Pressure: 29.92"   Gusts: NA
Location:  26.0272°N, 80.2445°W
Report Text: KHWO 211953Z 23010KT 10SM FEW019 26/22 A2992 RMK AO2 SLP132 T02610217
Loading
Personal Weather Stations






























Interactive Weather Map
Tropical Storm Tracking
New forecast layout! Learn more

10-Day Weather Forecast

Advertisements
Track Severe Weather on mobile